sensor_id;sensor_type;location;lat;lon;timestamp;pressure;altitude;pressure_sealevel;temperature;humidity
62111;BME280;48102;47.526;19.072;2023-06-22T03:42:26;100665.69;;;20.20;100.00
62111;BME280;48102;47.526;19.072;2023-06-22T03:45:30;100665.69;;;20.20;100.00
62111;BME280;48102;47.526;19.072;2023-06-22T03:48:32;100665.09;;;19.75;100.00
62111;BME280;48102;47.526;19.072;2023-06-22T03:51:35;100665.69;;;19.78;100.00
62111;BME280;48102;47.526;19.072;2023-06-22T03:54:38;100676.69;;;19.85;100.00
62111;BME280;48102;47.526;19.072;2023-06-22T03:57:41;100685.78;;;19.94;100.00
62111;BME280;48102;47.526;19.072;2023-06-22T04:00:43;100680.66;;;20.02;100.00
62111;BME280;48102;47.526;19.072;2023-06-22T04:03:46;100680.22;;;20.18;100.00
62111;BME280;48102;47.526;19.072;2023-06-22T04:06:51;100682.56;;;20.32;100.00
62111;BME280;48102;47.526;19.072;2023-06-22T04:09:54;100688.69;;;20.44;100.00
62111;BME280;48102;47.526;19.072;2023-06-22T04:12:57;100697.53;;;20.56;100.00
62111;BME280;48102;47.526;19.072;2023-06-22T04:15:59;100697.69;;;20.64;100.00
62111;BME280;48102;47.526;19.072;2023-06-22T04:19:03;100688.03;;;20.72;100.00
62111;BME280;48102;47.526;19.072;2023-06-22T04:22:06;100685.53;;;20.80;100.00
62111;BME280;48102;47.526;19.072;2023-06-22T04:25:09;100688.97;;;20.92;100.00
62111;BME280;48102;47.526;19.072;2023-06-22T04:28:12;100696.38;;;21.10;100.00
62111;BME280;48102;47.526;19.072;2023-06-22T04:31:15;100698.41;;;21.27;100.00
62111;BME280;48102;47.526;19.072;2023-06-22T04:34:18;100702.16;;;21.45;100.00
62111;BME280;48102;47.526;19.072;2023-06-22T04:37:20;100708.41;;;21.65;100.00
62111;BME280;48102;47.526;19.072;2023-06-22T04:40:26;100699.25;;;21.77;100.00
62111;BME280;48102;47.526;19.072;2023-06-22T04:43:29;100700.38;;;21.85;100.00
62111;BME280;48102;47.526;19.072;2023-06-22T04:46:33;100698.56;;;21.85;100.00
62111;BME280;48102;47.526;19.072;2023-06-22T04:49:40;100705.63;;;21.86;100.00
62111;BME280;48102;47.526;19.072;2023-06-22T04:52:45;100704.19;;;21.92;100.00
62111;BME280;48102;47.526;19.072;2023-06-22T04:55:48;100706.19;;;21.99;100.00
62111;BME280;48102;47.526;19.072;2023-06-22T04:58:51;100711.28;;;22.02;100.00
62111;BME280;48102;47.526;19.072;2023-06-22T05:01:54;100715.50;;;22.15;100.00
62111;BME280;48102;47.526;19.072;2023-06-22T05:04:57;100717.22;;;22.16;100.00
62111;BME280;48102;47.526;19.072;2023-06-22T05:08:02;100719.75;;;22.27;100.00
62111;BME280;48102;47.526;19.072;2023-06-22T05:11:05;100714.78;;;22.51;100.00
62111;BME280;48102;47.526;19.072;2023-06-22T05:14:07;100717.56;;;22.69;100.00
62111;BME280;48102;47.526;19.072;2023-06-22T05:17:10;100722.63;;;22.82;100.00
62111;BME280;48102;47.526;19.072;2023-06-22T05:20:17;100727.56;;;22.87;100.00
62111;BME280;48102;47.526;19.072;2023-06-22T05:23:21;100724.53;;;23.09;100.00
62111;BME280;48102;47.526;19.072;2023-06-22T05:26:24;100734.19;;;23.29;100.00
62111;BME280;48102;47.526;19.072;2023-06-22T05:29:27;100737.22;;;23.44;100.00
62111;BME280;48102;47.526;19.072;2023-06-22T05:32:29;100737.56;;;23.41;100.00
62111;BME280;48102;47.526;19.072;2023-06-22T05:35:32;100742.09;;;23.41;100.00
62111;BME280;48102;47.526;19.072;2023-06-22T05:38:36;100745.81;;;23.58;100.00
62111;BME280;48102;47.526;19.072;2023-06-22T05:41:40;100749.25;;;23.77;100.00
62111;BME280;48102;47.526;19.072;2023-06-22T05:44:43;100753.84;;;23.67;100.00
62111;BME280;48102;47.526;19.072;2023-06-22T05:47:45;100758.09;;;23.60;100.00
62111;BME280;48102;47.526;19.072;2023-06-22T05:50:48;100759.56;;;23.82;100.00
62111;BME280;48102;47.526;19.072;2023-06-22T05:53:51;100755.44;;;24.06;100.00
62111;BME280;48102;47.526;19.072;2023-06-22T05:56:54;100758.13;;;24.23;100.00
62111;BME280;48102;47.526;19.072;2023-06-22T05:59:56;100769.81;;;24.32;100.00
62111;BME280;48102;47.526;19.072;2023-06-22T06:02:59;100760.81;;;24.41;100.00
62111;BME280;48102;47.526;19.072;2023-06-22T06:06:07;100767.66;;;24.53;100.00
62111;BME280;48102;47.526;19.072;2023-06-22T06:09:10;100760.69;;;24.69;100.00
62111;BME280;48102;47.526;19.072;2023-06-22T06:12:14;100767.22;;;24.84;100.00
62111;BME280;48102;47.526;19.072;2023-06-22T06:15:17;100760.22;;;24.99;100.00
62111;BME280;48102;47.526;19.072;2023-06-22T06:18:19;100752.56;;;25.13;100.00
62111;BME280;48102;47.526;19.072;2023-06-22T06:21:22;100763.78;;;25.34;100.00
62111;BME280;48102;47.526;19.072;2023-06-22T06:24:25;100764.59;;;25.61;100.00
62111;BME280;48102;47.526;19.072;2023-06-22T06:27:28;100759.94;;;25.79;100.00
62111;BME280;48102;47.526;19.072;2023-06-22T06:30:32;100761.47;;;25.90;96.71
62111;BME280;48102;47.526;19.072;2023-06-22T06:33:36;100747.50;;;26.02;97.36
62111;BME280;48102;47.526;19.072;2023-06-22T06:36:39;100748.69;;;26.24;94.27
62111;BME280;48102;47.526;19.072;2023-06-22T06:39:41;100744.31;;;26.32;86.51
62111;BME280;48102;47.526;19.072;2023-06-22T06:42:47;100757.34;;;26.44;87.09
62111;BME280;48102;47.526;19.072;2023-06-22T06:45:51;100754.97;;;26.66;89.96
62111;BME280;48102;47.526;19.072;2023-06-22T06:48:54;100744.97;;;26.83;88.92
62111;BME280;48102;47.526;19.072;2023-06-22T06:51:57;100751.84;;;26.93;89.56
62111;BME280;48102;47.526;19.072;2023-06-22T06:55:00;100747.78;;;27.06;82.89
62111;BME280;48102;47.526;19.072;2023-06-22T06:58:02;100751.69;;;27.03;79.76
62111;BME280;48102;47.526;19.072;2023-06-22T07:01:13;100754.56;;;27.10;71.44
62111;BME280;48102;47.526;19.072;2023-06-22T07:04:15;100750.19;;;26.92;73.54
62111;BME280;48102;47.526;19.072;2023-06-22T07:07:18;100743.94;;;26.92;79.31
62111;BME280;48102;47.526;19.072;2023-06-22T07:10:21;100747.44;;;27.17;76.08
62111;BME280;48102;47.526;19.072;2023-06-22T07:13:25;100742.94;;;27.40;69.75
62111;BME280;48102;47.526;19.072;2023-06-22T07:16:28;100735.09;;;27.54;67.20
62111;BME280;48102;47.526;19.072;2023-06-22T07:19:33;100745.25;;;27.51;70.99
62111;BME280;48102;47.526;19.072;2023-06-22T07:22:36;100736.34;;;27.43;69.85
62111;BME280;48102;47.526;19.072;2023-06-22T07:25:39;100741.87;;;27.49;69.95
62111;BME280;48102;47.526;19.072;2023-06-22T07:28:42;100738.31;;;27.49;72.90
62111;BME280;48102;47.526;19.072;2023-06-22T07:31:45;100732.81;;;27.73;67.10
62111;BME280;48102;47.526;19.072;2023-06-22T07:34:48;100741.63;;;27.98;68.34
62111;BME280;48102;47.526;19.072;2023-06-22T07:37:50;100745.66;;;28.25;67.58
62111;BME280;48102;47.526;19.072;2023-06-22T07:40:53;100747.47;;;28.33;64.44
62111;BME280;48102;47.526;19.072;2023-06-22T07:43:56;100741.31;;;28.16;66.52
62111;BME280;48102;47.526;19.072;2023-06-22T07:46:59;100734.84;;;28.03;67.28
62111;BME280;48102;47.526;19.072;2023-06-22T07:50:02;100733.59;;;28.05;65.96
62111;BME280;48102;47.526;19.072;2023-06-22T07:53:05;100733.56;;;28.13;68.38
62111;BME280;48102;47.526;19.072;2023-06-22T07:56:10;100737.97;;;28.37;62.16
62111;BME280;48102;47.526;19.072;2023-06-22T07:59:13;100737.44;;;28.57;62.86
62111;BME280;48102;47.526;19.072;2023-06-22T08:02:16;100728.78;;;28.76;60.42
62111;BME280;48102;47.526;19.072;2023-06-22T08:05:19;100726.84;;;28.99;63.05
62111;BME280;48102;47.526;19.072;2023-06-22T08:08:36;100731.31;;;29.22;63.05
62111;BME280;48102;47.526;19.072;2023-06-22T08:11:39;100723.47;;;29.27;55.53
62111;BME280;48102;47.526;19.072;2023-06-22T08:14:42;100720.53;;;29.43;59.84
62111;BME280;48102;47.526;19.072;2023-06-22T08:17:47;100718.50;;;29.45;56.86
62111;BME280;48102;47.526;19.072;2023-06-22T08:20:50;100718.37;;;29.39;61.41
62111;BME280;48102;47.526;19.072;2023-06-22T08:23:53;100714.47;;;29.27;57.33
62111;BME280;48102;47.526;19.072;2023-06-22T08:26:55;100718.84;;;29.57;59.11
62111;BME280;48102;47.526;19.072;2023-06-22T08:29:59;100719.22;;;29.54;55.67
62111;BME280;48102;47.526;19.072;2023-06-22T08:33:02;100722.75;;;29.69;55.96
62111;BME280;48102;47.526;19.072;2023-06-22T08:36:05;100719.69;;;29.58;58.14
62111;BME280;48102;47.526;19.072;2023-06-22T08:39:10;100717.19;;;29.78;53.84
62111;BME280;48102;47.526;19.072;2023-06-22T08:42:13;100710.72;;;29.79;53.85
62111;BME280;48102;47.526;19.072;2023-06-22T08:45:16;100705.00;;;29.88;53.53
62111;BME280;48102;47.526;19.072;2023-06-22T08:48:19;100706.41;;;30.06;58.28
62111;BME280;48102;47.526;19.072;2023-06-22T08:51:22;100705.06;;;30.16;56.10
62111;BME280;48102;47.526;19.072;2023-06-22T08:54:25;100702.84;;;30.27;56.10
62111;BME280;48102;47.526;19.072;2023-06-22T08:57:28;100702.88;;;30.55;57.14
62111;BME280;48102;47.526;19.072;2023-06-22T09:00:31;100693.50;;;30.64;53.52
62111;BME280;48102;47.526;19.072;2023-06-22T09:03:37;100689.28;;;30.55;54.17
62111;BME280;48102;47.526;19.072;2023-06-22T09:06:43;100696.06;;;30.44;53.82
62111;BME280;48102;47.526;19.072;2023-06-22T09:09:47;100696.28;;;30.70;52.43
62111;BME280;48102;47.526;19.072;2023-06-22T09:12:50;100689.03;;;30.78;56.50
62111;BME280;48102;47.526;19.072;2023-06-22T09:15:53;100680.31;;;30.89;53.82
62111;BME280;48102;47.526;19.072;2023-06-22T09:18:56;100687.53;;;31.10;53.24
62111;BME280;48102;47.526;19.072;2023-06-22T09:21:59;100673.31;;;31.21;53.59
62111;BME280;48102;47.526;19.072;2023-06-22T09:25:03;100677.00;;;31.35;51.63
62111;BME280;48102;47.526;19.072;2023-06-22T09:28:09;100675.72;;;31.31;51.26
62111;BME280;48102;47.526;19.072;2023-06-22T09:31:12;100670.97;;;31.59;53.09
62111;BME280;48102;47.526;19.072;2023-06-22T09:34:14;100665.97;;;31.76;51.81
62111;BME280;48102;47.526;19.072;2023-06-22T09:37:17;100667.28;;;31.93;51.11
62111;BME280;48102;47.526;19.072;2023-06-22T09:40:20;100666.03;;;32.16;51.61
62111;BME280;48102;47.526;19.072;2023-06-22T09:43:23;100671.94;;;32.39;52.27
62111;BME280;48102;47.526;19.072;2023-06-22T09:46:25;100665.38;;;32.47;49.70
62111;BME280;48102;47.526;19.072;2023-06-22T09:49:28;100660.78;;;32.54;50.44
62111;BME280;48102;47.526;19.072;2023-06-22T09:52:48;100658.03;;;32.61;51.18
62111;BME280;48102;47.526;19.072;2023-06-22T09:55:57;100655.50;;;32.66;50.63
62111;BME280;48102;47.526;19.072;2023-06-22T09:59:00;100664.53;;;32.73;50.04
62111;BME280;48102;47.526;19.072;2023-06-22T10:02:20;100665.56;;;32.79;50.42
62111;BME280;48102;47.526;19.072;2023-06-22T10:05:25;100660.31;;;32.64;53.48
62111;BME280;48102;47.526;19.072;2023-06-22T10:08:28;100653.16;;;32.76;52.86
62111;BME280;48102;47.526;19.072;2023-06-22T10:11:31;100648.13;;;32.80;53.17
62111;BME280;48102;47.526;19.072;2023-06-22T10:14:37;100657.19;;;32.74;48.84
62111;BME280;48102;47.526;19.072;2023-06-22T10:17:40;100654.59;;;32.85;50.43
62111;BME280;48102;47.526;19.072;2023-06-22T10:20:43;100660.03;;;33.05;48.18
62111;BME280;48102;47.526;19.072;2023-06-22T10:23:46;100663.78;;;33.11;52.90
62111;BME280;48102;47.526;19.072;2023-06-22T10:26:49;100649.03;;;33.25;48.05
62111;BME280;48102;47.526;19.072;2023-06-22T10:29:52;100647.22;;;33.06;50.63
62111;BME280;48102;47.526;19.072;2023-06-22T10:32:56;100642.69;;;33.31;49.56
62111;BME280;48102;47.526;19.072;2023-06-22T10:35:59;100645.06;;;33.59;49.57
62111;BME280;48102;47.526;19.072;2023-06-22T10:39:02;100643.75;;;33.68;45.80
62111;BME280;48102;47.526;19.072;2023-06-22T10:42:05;100635.31;;;34.02;46.84
62111;BME280;48102;47.526;19.072;2023-06-22T10:45:09;100642.31;;;34.41;49.01
62111;BME280;48102;47.526;19.072;2023-06-22T10:48:12;100646.94;;;34.40;46.46
62111;BME280;48102;47.526;19.072;2023-06-22T10:51:14;100634.63;;;34.31;47.41
62111;BME280;48102;47.526;19.072;2023-06-22T10:54:17;100630.44;;;34.29;45.19
62111;BME280;48102;47.526;19.072;2023-06-22T10:57:21;100628.22;;;34.19;46.31
62111;BME280;48102;47.526;19.072;2023-06-22T11:00:24;100632.16;;;34.23;46.36
62111;BME280;48102;47.526;19.072;2023-06-22T11:03:27;100633.47;;;34.20;44.30
62111;BME280;48102;47.526;19.072;2023-06-22T11:06:30;100630.09;;;33.93;47.71
62111;BME280;48102;47.526;19.072;2023-06-22T11:09:33;100626.94;;;34.22;46.65
62111;BME280;48102;47.526;19.072;2023-06-22T11:12:36;100626.00;;;34.71;45.88
62111;BME280;48102;47.526;19.072;2023-06-22T11:15:39;100619.22;;;35.10;45.85
62111;BME280;48102;47.526;19.072;2023-06-22T11:18:43;100613.75;;;35.40;43.68
62111;BME280;48102;47.526;19.072;2023-06-22T11:21:45;100612.28;;;35.56;44.09
62111;BME280;48102;47.526;19.072;2023-06-22T11:24:48;100609.59;;;35.80;41.86
62111;BME280;48102;47.526;19.072;2023-06-22T11:27:51;100611.94;;;35.64;44.95
62111;BME280;48102;47.526;19.072;2023-06-22T11:30:56;100607.38;;;36.12;41.94
62111;BME280;48102;47.526;19.072;2023-06-22T11:34:02;100603.81;;;36.58;41.46
62111;BME280;48102;47.526;19.072;2023-06-22T11:37:05;100609.22;;;36.82;42.17
62111;BME280;48102;47.526;19.072;2023-06-22T11:40:08;100610.63;;;36.96;40.50
62111;BME280;48102;47.526;19.072;2023-06-22T11:43:12;100612.12;;;36.75;41.43
62111;BME280;48102;47.526;19.072;2023-06-22T11:46:15;100601.81;;;37.51;39.60
62111;BME280;48102;47.526;19.072;2023-06-22T11:49:17;100596.59;;;37.83;38.32
62111;BME280;48102;47.526;19.072;2023-06-22T11:52:21;100602.06;;;38.95;38.00
62111;BME280;48102;47.526;19.072;2023-06-22T11:55:24;100589.47;;;40.17;33.56
62111;BME280;48102;47.526;19.072;2023-06-22T11:58:27;100587.81;;;40.69;32.60
62111;BME280;48102;47.526;19.072;2023-06-22T12:01:29;100587.72;;;40.53;32.14
62111;BME280;48102;47.526;19.072;2023-06-22T12:04:32;100582.22;;;41.62;33.36
62111;BME280;48102;47.526;19.072;2023-06-22T12:07:35;100577.47;;;43.38;30.66
62111;BME280;48102;47.526;19.072;2023-06-22T12:10:38;100586.22;;;43.61;29.84
62111;BME280;48102;47.526;19.072;2023-06-22T12:13:41;100578.25;;;42.50;32.02
62111;BME280;48102;47.526;19.072;2023-06-22T12:16:44;100581.41;;;42.02;31.66
62111;BME280;48102;47.526;19.072;2023-06-22T12:19:46;100572.22;;;44.05;29.12
62111;BME280;48102;47.526;19.072;2023-06-22T12:22:49;100567.28;;;45.12;28.07
62111;BME280;48102;47.526;19.072;2023-06-22T12:25:54;100563.00;;;46.31;27.60
62111;BME280;48102;47.526;19.072;2023-06-22T12:28:57;100547.59;;;47.11;26.84
62111;BME280;48102;47.526;19.072;2023-06-22T12:31:59;100544.06;;;47.42;24.23
62111;BME280;48102;47.526;19.072;2023-06-22T12:35:02;100530.44;;;48.42;24.49
62111;BME280;48102;47.526;19.072;2023-06-22T12:38:05;100540.06;;;49.02;22.07
62111;BME280;48102;47.526;19.072;2023-06-22T12:41:11;100533.72;;;48.53;22.01
62111;BME280;48102;47.526;19.072;2023-06-22T12:44:13;100529.00;;;48.14;23.40
62111;BME280;48102;47.526;19.072;2023-06-22T12:47:16;100534.94;;;48.21;22.10
62111;BME280;48102;47.526;19.072;2023-06-22T12:50:19;100536.22;;;49.59;21.84
62111;BME280;48102;47.526;19.072;2023-06-22T12:53:22;100527.56;;;49.81;22.48
62111;BME280;48102;47.526;19.072;2023-06-22T12:56:26;100529.88;;;50.47;21.33
62111;BME280;48102;47.526;19.072;2023-06-22T12:59:29;100533.06;;;51.08;20.67
62111;BME280;48102;47.526;19.072;2023-06-22T13:02:31;100525.13;;;51.89;21.17
62111;BME280;48102;47.526;19.072;2023-06-22T13:05:34;100526.22;;;50.76;21.36
62111;BME280;48102;47.526;19.072;2023-06-22T13:08:38;100513.88;;;49.15;22.93
62111;BME280;48102;47.526;19.072;2023-06-22T13:11:45;100504.31;;;48.90;24.85
62111;BME280;48102;47.526;19.072;2023-06-22T13:14:48;100500.03;;;49.02;22.10
62111;BME280;48102;47.526;19.072;2023-06-22T13:17:51;100500.09;;;50.63;20.49
62111;BME280;48102;47.526;19.072;2023-06-22T13:20:54;100505.78;;;51.75;20.80
62111;BME280;48102;47.526;19.072;2023-06-22T13:23:58;100491.94;;;53.72;19.18
62111;BME280;48102;47.526;19.072;2023-06-22T13:27:00;100493.75;;;53.80;18.54
62111;BME280;48102;47.526;19.072;2023-06-22T13:30:04;100492.16;;;54.49;17.67
62111;BME280;48102;47.526;19.072;2023-06-22T13:33:07;100483.16;;;54.98;18.78
62111;BME280;48102;47.526;19.072;2023-06-22T13:36:11;100482.34;;;54.24;19.22
62111;BME280;48102;47.526;19.072;2023-06-22T13:39:14;100473.41;;;52.55;20.25
62111;BME280;48102;47.526;19.072;2023-06-22T13:42:17;100473.12;;;53.00;19.68
62111;BME280;48102;47.526;19.072;2023-06-22T13:45:19;100466.94;;;53.54;18.90
62111;BME280;48102;47.526;19.072;2023-06-22T13:48:23;100464.91;;;51.65;20.52
62111;BME280;48102;47.526;19.072;2023-06-22T13:51:28;100463.19;;;52.62;18.32
62111;BME280;48102;47.526;19.072;2023-06-22T13:54:31;100464.03;;;53.51;18.87
62111;BME280;48102;47.526;19.072;2023-06-22T13:57:37;100460.87;;;54.54;18.29
62111;BME280;48102;47.526;19.072;2023-06-22T14:00:40;100466.09;;;55.79;16.84
62111;BME280;48102;47.526;19.072;2023-06-22T14:03:43;100454.25;;;51.83;20.30
62111;BME280;48102;47.526;19.072;2023-06-22T14:06:48;100437.81;;;47.78;21.85
62111;BME280;48102;47.526;19.072;2023-06-22T14:09:51;100435.22;;;49.55;21.69
62111;BME280;48102;47.526;19.072;2023-06-22T14:12:53;100447.22;;;52.54;20.50
62111;BME280;48102;47.526;19.072;2023-06-22T14:15:58;100442.72;;;54.36;17.70
62111;BME280;48102;47.526;19.072;2023-06-22T14:19:03;100443.19;;;54.77;18.03
62111;BME280;48102;47.526;19.072;2023-06-22T14:22:06;100444.91;;;55.24;17.05
62111;BME280;48102;47.526;19.072;2023-06-22T14:25:09;100434.75;;;55.69;16.41
62111;BME280;48102;47.526;19.072;2023-06-22T14:28:12;100435.09;;;56.47;15.95
62111;BME280;48102;47.526;19.072;2023-06-22T14:31:14;100434.09;;;56.66;16.09
62111;BME280;48102;47.526;19.072;2023-06-22T14:34:17;100422.88;;;56.73;16.36
62111;BME280;48102;47.526;19.072;2023-06-22T14:37:20;100428.06;;;58.00;15.15
62111;BME280;48102;47.526;19.072;2023-06-22T14:40:23;100423.34;;;58.26;13.10
62111;BME280;48102;47.526;19.072;2023-06-22T14:43:28;100403.31;;;57.35;13.88
62111;BME280;48102;47.526;19.072;2023-06-22T14:46:31;100407.91;;;56.72;14.68
62111;BME280;48102;47.526;19.072;2023-06-22T14:49:34;100397.53;;;56.50;15.37
62111;BME280;48102;47.526;19.072;2023-06-22T14:52:38;100408.81;;;57.21;14.94
62111;BME280;48102;47.526;19.072;2023-06-22T14:55:41;100400.94;;;57.44;15.60
62111;BME280;48102;47.526;19.072;2023-06-22T14:58:44;100400.59;;;57.05;14.98
62111;BME280;48102;47.526;19.072;2023-06-22T15:01:50;100394.06;;;57.49;15.96
62111;BME280;48102;47.526;19.072;2023-06-22T15:04:53;100389.87;;;57.87;15.33
62111;BME280;48102;47.526;19.072;2023-06-22T15:07:56;100393.78;;;58.41;14.91
62111;BME280;48102;47.526;19.072;2023-06-22T15:10:59;100382.50;;;57.20;14.95
62111;BME280;48102;47.526;19.072;2023-06-22T15:14:03;100374.06;;;55.59;15.76
62111;BME280;48102;47.526;19.072;2023-06-22T15:17:07;100369.59;;;55.35;16.81
62111;BME280;48102;47.526;19.072;2023-06-22T15:20:11;100369.81;;;55.46;15.93
62111;BME280;48102;47.526;19.072;2023-06-22T15:23:14;100362.00;;;55.92;16.25
